createdAt,value
2022-11-18T00:01:58.366Z,11.07
2022-11-18T00:04:28.563Z,6.60
2022-11-18T00:06:57.282Z,94.73
2022-11-18T00:09:26.205Z,24.60
2022-11-18T00:12:11.961Z,7.83
2022-11-18T00:14:40.458Z,7.10
2022-11-18T00:17:09.014Z,9.03
2022-11-18T00:19:43.385Z,8.70
2022-11-18T00:22:14.778Z,6.50
2022-11-18T00:24:43.044Z,10.33
2022-11-18T00:27:11.452Z,12.23
2022-11-18T00:29:39.859Z,6.70
2022-11-18T00:32:08.452Z,8.50
2022-11-18T00:34:38.622Z,9.90
2022-11-18T00:37:07.836Z,7.43
2022-11-18T00:39:36.186Z,12.30
2022-11-18T00:42:22.249Z,7.30
2022-11-18T00:44:50.501Z,7.43
2022-11-18T00:47:30.137Z,14.37
2022-11-18T00:49:59.741Z,10.43
2022-11-18T00:52:28.304Z,9.17
2022-11-18T00:54:56.598Z,9.00
2022-11-18T00:57:24.875Z,6.50
2022-11-18T00:59:53.127Z,6.50
2022-11-18T01:02:21.441Z,11.43
2022-11-18T01:04:50.098Z,10.57
2022-11-18T01:07:19.682Z,9.67
2022-11-18T01:09:48.214Z,10.57
2022-11-18T01:12:33.612Z,6.63
2022-11-18T01:15:02.222Z,7.10
2022-11-18T01:17:34.700Z,9.30
2022-11-18T01:20:02.991Z,8.93
2022-11-18T01:22:32.822Z,10.37
2022-11-18T01:25:00.890Z,6.23
2022-11-18T01:27:29.142Z,9.27
2022-11-18T01:29:57.452Z,12.30
2022-11-18T01:32:25.938Z,11.00
2022-11-18T01:34:53.985Z,7.40
2022-11-18T01:37:22.365Z,8.63
2022-11-18T01:39:52.245Z,8.83
2022-11-18T01:42:20.613Z,9.33
2022-11-18T01:45:16.710Z,8.13
2022-11-18T01:47:50.934Z,12.57
2022-11-18T01:50:24.404Z,11.60
2022-11-18T01:52:54.548Z,7.93
2022-11-18T01:55:27.849Z,8.80
2022-11-18T01:58:01.796Z,7.80
2022-11-18T02:00:31.914Z,9.10
2022-11-18T02:03:02.511Z,10.60
2022-11-18T02:05:33.726Z,8.47
2022-11-18T02:08:03.295Z,9.03
2022-11-18T02:10:33.189Z,8.67
2022-11-18T02:13:02.790Z,8.10
2022-11-18T02:15:47.649Z,10.13
2022-11-18T02:18:27.552Z,7.83
2022-11-18T02:21:02.268Z,11.40
2022-11-18T02:24:13.547Z,11.10
2022-11-18T02:27:28.041Z,6.50
2022-11-18T02:30:03.814Z,9.30
2022-11-18T02:32:35.591Z,8.50
2022-11-18T02:35:11.157Z,11.43
2022-11-18T02:37:49.589Z,9.73
2022-11-18T02:40:23.832Z,10.50
2022-11-18T02:42:56.095Z,11.70
2022-11-18T02:45:30.535Z,11.47
2022-11-18T02:48:03.869Z,8.67
2022-11-18T02:50:37.013Z,12.93
2022-11-18T02:53:08.786Z,9.87
2022-11-18T02:55:39.892Z,10.70
2022-11-18T02:58:09.051Z,8.60
2022-11-18T03:00:38.684Z,14.90
2022-11-18T03:03:27.053Z,8.53
2022-11-18T03:06:09.009Z,13.00
2022-11-18T03:08:43.275Z,11.83
2022-11-18T03:11:17.564Z,9.77
2022-11-18T03:14:03.434Z,11.77
2022-11-18T03:16:38.649Z,11.33
2022-11-18T03:19:19.448Z,12.77
2022-11-18T03:21:58.765Z,11.80
2022-11-18T03:24:32.588Z,11.03
2022-11-18T03:27:14.048Z,11.77
2022-11-18T03:29:48.066Z,16.60
2022-11-18T03:32:22.229Z,11.60
2022-11-18T03:34:53.675Z,9.50
2022-11-18T03:37:23.887Z,11.00
2022-11-18T03:39:55.266Z,10.77
2022-11-18T03:42:28.152Z,8.77
2022-11-18T03:45:01.252Z,10.03
2022-11-18T03:47:35.575Z,10.67
2022-11-18T03:50:10.952Z,10.43
2022-11-18T03:52:40.369Z,11.30
2022-11-18T03:55:13.556Z,14.73
2022-11-18T03:57:48.340Z,11.30
2022-11-18T04:00:20.611Z,10.77
2022-11-18T04:02:51.889Z,8.80
2022-11-18T04:05:21.049Z,9.37
2022-11-18T04:07:57.777Z,15.57
2022-11-18T04:10:32.314Z,16.77
2022-11-18T04:13:07.033Z,10.03
2022-11-18T04:15:39.401Z,9.80
2022-11-18T04:18:09.862Z,9.30
2022-11-18T04:20:38.349Z,15.17
2022-11-18T04:23:07.388Z,22.30
2022-11-18T04:25:35.662Z,14.00
2022-11-18T04:28:04.164Z,9.50
2022-11-18T04:30:34.022Z,16.27
2022-11-18T04:33:02.573Z,15.60
2022-11-18T04:35:32.400Z,10.57
2022-11-18T04:38:00.678Z,8.60
2022-11-18T04:40:28.993Z,8.40
2022-11-18T04:42:57.747Z,9.93
2022-11-18T04:45:26.589Z,9.07
2022-11-18T04:48:00.264Z,11.10
2022-11-18T04:50:33.500Z,9.43
2022-11-18T04:53:03.224Z,7.20
2022-11-18T04:55:31.509Z,8.20
2022-11-18T04:57:59.794Z,7.93
2022-11-18T05:00:30.115Z,10.27
2022-11-18T05:03:00.136Z,6.67
2022-11-18T05:05:28.335Z,10.83
2022-11-18T05:07:58.228Z,10.53
2022-11-18T05:10:26.554Z,11.63
2022-11-18T05:13:20.515Z,11.20
2022-11-18T05:15:48.859Z,11.80
2022-11-18T05:18:16.924Z,10.53
2022-11-18T05:20:45.260Z,13.90
2022-11-18T05:23:15.164Z,13.37
2022-11-18T05:25:43.391Z,13.30
2022-11-18T05:28:11.746Z,12.97
2022-11-18T05:30:40.242Z,13.67
2022-11-18T05:33:08.807Z,12.47
2022-11-18T05:35:38.795Z,16.23
2022-11-18T05:38:07.064Z,13.30
2022-11-18T05:40:37.140Z,19.20
2022-11-18T05:43:13.389Z,17.70
2022-11-18T05:45:42.996Z,17.20
2022-11-18T05:48:12.157Z,16.30
2022-11-18T05:50:40.602Z,15.27
2022-11-18T05:53:09.034Z,15.20
2022-11-18T05:55:43.557Z,16.93
2022-11-18T05:58:12.083Z,16.47
2022-11-18T06:00:40.463Z,17.13
2022-11-18T06:03:14.361Z,16.67
2022-11-18T06:05:43.610Z,20.17
2022-11-18T06:08:13.891Z,17.23
2022-11-18T06:10:46.581Z,17.20
2022-11-18T06:13:21.784Z,20.77
2022-11-18T06:15:50.388Z,18.50
2022-11-18T06:18:23.734Z,21.60
2022-11-18T06:20:53.770Z,20.57
2022-11-18T06:23:22.777Z,21.30
2022-11-18T06:25:52.818Z,20.00
2022-11-18T06:28:23.599Z,22.63
2022-11-18T06:30:51.638Z,30.17
2022-11-18T06:33:20.069Z,24.43
2022-11-18T06:35:48.523Z,29.80
2022-11-18T06:38:22.885Z,26.37
2022-11-18T06:40:53.056Z,25.67
2022-11-18T06:43:38.832Z,27.73
2022-11-18T06:46:27.377Z,23.07
2022-11-18T06:48:55.490Z,22.33
2022-11-18T06:51:23.974Z,27.00
2022-11-18T06:53:53.054Z,24.20
2022-11-18T06:56:26.730Z,25.50
2022-11-18T06:59:02.678Z,27.30
2022-11-18T07:01:39.864Z,23.07
2022-11-18T07:04:08.269Z,26.23
2022-11-18T07:06:37.800Z,23.40
2022-11-18T07:09:08.678Z,22.53
2022-11-18T07:11:40.622Z,24.37
2022-11-18T07:14:31.276Z,28.80
2022-11-18T07:17:06.525Z,18.93
2022-11-18T07:19:37.787Z,21.90
2022-11-18T07:22:08.431Z,21.83
2022-11-18T07:24:45.925Z,20.30
2022-11-18T07:27:16.511Z,19.37
2022-11-18T07:29:44.960Z,16.63
2022-11-18T07:32:13.221Z,17.60
2022-11-18T07:34:41.532Z,16.83
2022-11-18T07:37:09.667Z,20.17
2022-11-18T07:39:40.365Z,21.97
2022-11-18T07:42:10.357Z,20.10
2022-11-18T07:44:40.509Z,17.33
2022-11-18T07:47:08.608Z,17.33
2022-11-18T07:49:36.905Z,14.80
2022-11-18T07:52:08.152Z,14.20
2022-11-18T07:54:36.670Z,11.47
2022-11-18T07:57:05.054Z,11.07
2022-11-18T07:59:33.404Z,11.50
2022-11-18T08:02:03.601Z,7.70
2022-11-18T08:04:32.635Z,9.27
2022-11-18T08:07:14.770Z,8.77
2022-11-18T08:09:47.937Z,11.53
2022-11-18T08:12:24.224Z,9.60
2022-11-18T08:14:52.516Z,12.47
2022-11-18T08:17:36.368Z,10.67
2022-11-18T08:20:04.946Z,10.67
2022-11-18T08:22:38.940Z,10.17
2022-11-18T08:25:45.232Z,12.07
2022-11-18T08:28:19.426Z,8.17
2022-11-18T08:33:41.048Z,7.63
2022-11-18T08:36:10.766Z,9.13
2022-11-18T08:38:39.106Z,7.60
2022-11-18T08:41:08.071Z,7.40
2022-11-18T08:43:36.890Z,9.20
2022-11-18T08:46:05.230Z,6.90
2022-11-18T08:48:33.488Z,8.50
2022-11-18T08:51:15.831Z,14.10
2022-11-18T08:53:44.775Z,7.90
2022-11-18T08:56:17.676Z,8.53
2022-11-18T08:58:46.819Z,8.47
2022-11-18T09:01:15.661Z,6.13
2022-11-18T09:03:44.027Z,5.40
2022-11-18T09:06:15.649Z,6.03
2022-11-18T09:08:44.410Z,6.73
2022-11-18T09:11:14.631Z,4.73
2022-11-18T09:14:14.382Z,3.77
2022-11-18T09:16:33.101Z,4.73
2022-11-18T09:19:18.600Z,5.40
2022-11-18T09:21:52.483Z,3.10
2022-11-18T09:24:22.958Z,4.90
2022-11-18T09:26:56.458Z,3.83
2022-11-18T09:29:30.165Z,3.63
2022-11-18T09:31:59.175Z,1.67
2022-11-18T09:34:27.321Z,9.73
2022-11-18T09:36:58.073Z,2.33
2022-11-18T09:39:26.632Z,6.23
2022-11-18T09:42:05.934Z,1.80
2022-11-18T09:44:48.983Z,1.90
2022-11-18T09:47:26.490Z,3.03
2022-11-18T09:49:56.665Z,3.90
2022-11-18T09:52:35.563Z,4.20
2022-11-18T09:55:12.713Z,6.90
2022-11-18T09:57:43.186Z,2.67
2022-11-18T10:00:16.584Z,2.47
2022-11-18T10:02:58.107Z,2.10
2022-11-18T10:05:29.055Z,2.50
2022-11-18T10:08:06.098Z,3.23
2022-11-18T10:10:47.469Z,2.40
2022-11-18T10:13:24.487Z,3.63
2022-11-18T10:16:01.697Z,6.33
2022-11-18T10:18:59.313Z,5.20
2022-11-18T10:21:36.433Z,3.17
2022-11-18T10:24:13.835Z,3.53
2022-11-18T10:26:43.286Z,3.63
2022-11-18T10:29:16.923Z,3.13
2022-11-18T10:32:04.202Z,2.70
2022-11-18T10:34:46.252Z,2.40
2022-11-18T10:37:38.760Z,3.13
2022-11-18T10:40:28.769Z,5.90
2022-11-18T10:42:57.548Z,6.70
2022-11-18T10:45:28.953Z,5.57
2022-11-18T10:48:10.413Z,4.20
2022-11-18T10:50:52.031Z,9.40
2022-11-18T10:53:32.789Z,2.70
2022-11-18T10:56:04.863Z,3.73
2022-11-18T10:58:37.586Z,3.83
2022-11-18T11:01:08.650Z,4.50
2022-11-18T11:03:38.913Z,5.40
2022-11-18T11:06:23.202Z,4.30
2022-11-18T11:08:54.932Z,2.70
2022-11-18T11:11:28.790Z,5.27
2022-11-18T11:14:06.495Z,4.10
2022-11-18T11:16:49.526Z,3.70
2022-11-18T11:19:23.111Z,4.60
2022-11-18T11:21:54.396Z,9.20
2022-11-18T11:24:26.291Z,4.37
2022-11-18T11:30:33.812Z,3.90
2022-11-18T11:33:34.083Z,4.70
2022-11-18T11:36:22.922Z,3.80
2022-11-18T11:39:04.922Z,6.20
2022-11-18T11:42:18.896Z,3.40
2022-11-18T11:45:01.287Z,10.30
2022-11-18T11:47:51.598Z,4.90
2022-11-18T11:50:29.453Z,5.13
2022-11-18T11:53:16.075Z,3.63
2022-11-18T11:56:12.257Z,4.00
2022-11-18T11:59:02.002Z,8.13
2022-11-18T12:01:43.177Z,4.10
2022-11-18T12:04:31.997Z,3.93
2022-11-18T12:07:07.891Z,5.17
2022-11-18T12:09:51.922Z,8.97
2022-11-18T12:12:39.513Z,5.23
2022-11-18T12:18:48.204Z,3.30
2022-11-18T12:21:58.330Z,5.90
2022-11-18T12:24:36.390Z,5.97
2022-11-18T12:27:08.020Z,6.20
2022-11-18T12:29:42.311Z,5.40
2022-11-18T12:32:28.782Z,5.03
2022-11-18T12:35:25.801Z,7.87
2022-11-18T12:38:05.124Z,3.30
2022-11-18T12:40:46.080Z,4.03
2022-11-18T12:44:03.414Z,4.80
2022-11-18T12:46:51.898Z,4.60
2022-11-18T12:50:15.433Z,6.67
2022-11-18T12:52:54.089Z,5.57
2022-11-18T12:55:38.478Z,3.87
2022-11-18T12:58:35.829Z,4.50
2022-11-18T13:01:20.469Z,3.23
2022-11-18T13:03:49.184Z,4.00
2022-11-18T13:06:26.890Z,3.97
2022-11-18T13:09:05.551Z,6.37
2022-11-18T13:11:47.392Z,4.73
2022-11-18T13:14:35.822Z,4.70
2022-11-18T13:17:21.361Z,4.10
2022-11-18T13:19:57.730Z,3.83
2022-11-18T13:22:43.607Z,5.73
2022-11-18T13:25:34.509Z,2.60
2022-11-18T13:48:10.277Z,3.00
2022-11-18T13:52:09.393Z,3.87
2022-11-18T13:55:28.930Z,3.83
2022-11-18T13:58:06.292Z,3.03
2022-11-18T14:00:38.843Z,4.93
2022-11-18T14:28:10.763Z,7.23
2022-11-18T14:30:41.699Z,2.00
2022-11-18T14:33:21.708Z,1.83
2022-11-18T14:35:53.662Z,3.57
2022-11-18T14:41:16.497Z,2.10
2022-11-18T14:43:46.098Z,2.47
2022-11-18T14:46:18.535Z,2.10
2022-11-18T14:48:48.584Z,3.90
2022-11-18T14:51:17.980Z,2.57
2022-11-18T14:53:46.528Z,3.40
2022-11-18T14:56:20.272Z,7.50
2022-11-18T14:58:48.548Z,2.57
2022-11-18T15:01:21.472Z,9.53
2022-11-18T15:03:54.813Z,3.83
2022-11-18T15:06:24.673Z,2.53
2022-11-18T15:08:54.348Z,4.07
2022-11-18T15:11:22.874Z,3.57
2022-11-18T15:13:51.319Z,2.93
2022-11-18T15:16:21.274Z,6.73
2022-11-18T15:18:51.896Z,4.40
2022-11-18T15:21:22.545Z,5.20
2022-11-18T15:23:51.068Z,7.67
2022-11-18T15:26:22.009Z,4.50
2022-11-18T15:28:51.751Z,2.60
2022-11-18T15:31:20.771Z,2.50
2022-11-18T15:33:50.130Z,3.83
2022-11-18T15:36:20.139Z,5.60
2022-11-18T15:38:51.082Z,4.03
2022-11-18T15:41:21.194Z,11.80
2022-11-18T15:43:49.872Z,2.20
2022-11-18T15:46:20.480Z,2.80
2022-11-18T15:48:49.382Z,7.23
2022-11-18T15:51:17.867Z,6.10
2022-11-18T15:53:46.168Z,2.50
2022-11-18T15:56:34.448Z,3.40
2022-11-18T15:59:05.283Z,4.03
2022-11-18T16:01:35.374Z,6.13
2022-11-18T16:04:04.364Z,12.90
2022-11-18T16:06:33.367Z,12.70
2022-11-18T16:09:05.405Z,13.93
2022-11-18T16:11:52.320Z,11.37
2022-11-18T16:14:23.382Z,13.73
2022-11-18T16:16:55.222Z,6.00
2022-11-18T16:19:25.630Z,8.43
2022-11-18T16:21:57.119Z,6.23
2022-11-18T16:24:27.370Z,7.43
2022-11-18T16:26:57.693Z,8.33
2022-11-18T16:29:25.878Z,9.27
2022-11-18T16:31:54.929Z,9.70
2022-11-18T16:34:25.375Z,12.13
2022-11-18T16:37:02.497Z,10.27
2022-11-18T16:39:32.426Z,12.47
2022-11-18T16:42:08.939Z,13.00
2022-11-18T16:44:38.227Z,11.00
2022-11-18T16:47:13.899Z,7.93
2022-11-18T16:49:42.985Z,8.27
2022-11-18T16:52:11.537Z,8.73
2022-11-18T16:54:45.368Z,6.20
2022-11-18T16:57:15.992Z,11.30
2022-11-18T16:59:44.274Z,9.50
2022-11-18T17:02:14.363Z,9.90
2022-11-18T17:04:42.723Z,5.60
2022-11-18T17:07:11.104Z,7.17
2022-11-18T17:09:39.528Z,8.33
2022-11-18T17:12:08.974Z,8.93
2022-11-18T17:14:40.432Z,7.40
2022-11-18T17:17:09.156Z,9.60
2022-11-18T17:19:37.646Z,7.13
2022-11-18T17:22:11.806Z,7.50
2022-11-18T17:24:40.105Z,10.20
2022-11-18T17:27:09.318Z,9.00
2022-11-18T17:29:39.184Z,13.10
2022-11-18T17:32:08.331Z,9.97
2022-11-18T17:34:40.210Z,9.10
2022-11-18T17:37:08.538Z,9.93
2022-11-18T17:39:36.960Z,10.93
2022-11-18T17:42:19.180Z,14.80
2022-11-18T17:44:48.818Z,11.13
2022-11-18T17:47:17.105Z,12.90
2022-11-18T17:49:45.844Z,14.03
2022-11-18T17:52:14.006Z,28.73
2022-11-18T17:54:42.297Z,11.93
2022-11-18T17:57:10.618Z,11.13
2022-11-18T17:59:38.881Z,11.40
2022-11-18T18:02:09.173Z,16.30
2022-11-18T18:04:37.239Z,10.00
2022-11-18T18:07:05.786Z,13.93
2022-11-18T18:09:34.150Z,14.60
2022-11-18T18:12:22.368Z,19.70
2022-11-18T18:14:49.792Z,15.60
2022-11-18T18:17:22.608Z,23.90
2022-11-18T18:19:50.960Z,12.63
2022-11-18T18:22:19.170Z,14.70
2022-11-18T18:24:47.598Z,17.30
2022-11-18T18:27:16.326Z,10.97
2022-11-18T18:29:45.213Z,14.27
2022-11-18T18:32:18.062Z,14.53
2022-11-18T18:34:48.619Z,11.30
2022-11-18T18:37:17.250Z,14.50
2022-11-18T18:39:45.318Z,19.00
2022-11-18T18:42:13.618Z,10.63
2022-11-18T18:44:58.900Z,13.47
2022-11-18T18:47:27.695Z,8.03
2022-11-18T18:49:57.491Z,12.77
2022-11-18T18:52:25.669Z,11.77
2022-11-18T18:54:54.099Z,12.80
2022-11-18T18:57:22.434Z,11.90
2022-11-18T18:59:50.456Z,11.17
2022-11-18T19:02:20.072Z,11.47
2022-11-18T19:04:48.550Z,10.50
2022-11-18T19:07:21.126Z,9.67
2022-11-18T19:09:50.509Z,10.77
2022-11-18T19:12:36.618Z,11.63
2022-11-18T19:15:06.743Z,13.53
2022-11-18T19:17:35.272Z,10.33
2022-11-18T19:20:23.460Z,7.43
2022-11-18T19:22:53.608Z,6.93
2022-11-18T19:25:25.183Z,9.93
2022-11-18T19:27:53.673Z,6.80
2022-11-18T19:30:22.106Z,6.13
2022-11-18T19:32:50.690Z,7.40
2022-11-18T19:35:19.226Z,7.43
2022-11-18T19:37:48.462Z,6.60
2022-11-18T19:40:20.900Z,9.20
2022-11-18T19:42:51.120Z,9.97
2022-11-18T19:45:19.681Z,8.63
2022-11-18T19:47:47.699Z,5.60
2022-11-18T19:50:17.844Z,7.17
2022-11-18T19:52:48.867Z,7.83
2022-11-18T19:55:21.492Z,10.97
2022-11-18T19:57:50.038Z,5.07
2022-11-18T20:00:19.990Z,6.90
2022-11-18T20:02:49.393Z,9.20
2022-11-18T20:05:35.092Z,7.30
2022-11-18T20:08:04.224Z,6.67
2022-11-18T20:10:36.441Z,5.33
2022-11-18T20:13:07.433Z,8.53
2022-11-18T20:15:36.498Z,7.37
2022-11-18T20:18:04.898Z,6.57
2022-11-18T20:20:35.001Z,10.23
2022-11-18T20:23:03.382Z,4.93
2022-11-18T20:25:36.348Z,8.57
2022-11-18T20:28:05.332Z,8.73
2022-11-18T20:30:33.806Z,6.00
2022-11-18T20:33:02.060Z,6.40
2022-11-18T20:35:30.995Z,9.50
2022-11-18T20:37:59.307Z,5.53
2022-11-18T20:40:28.622Z,7.40
2022-11-18T20:43:13.684Z,6.47
2022-11-18T20:45:44.335Z,9.30
2022-11-18T20:48:14.460Z,5.70
2022-11-18T20:50:44.297Z,13.53
2022-11-18T20:53:12.850Z,7.53
2022-11-18T20:55:42.615Z,6.50
2022-11-18T20:58:14.485Z,7.50
2022-11-18T21:00:43.388Z,7.50
2022-11-18T21:03:13.619Z,7.30
2022-11-18T21:05:44.827Z,7.90
2022-11-18T21:08:13.230Z,9.60
2022-11-18T21:10:41.866Z,5.83
2022-11-18T21:13:31.225Z,13.33
2022-11-18T21:15:59.651Z,10.83
2022-11-18T21:18:35.129Z,12.50
2022-11-18T21:21:21.728Z,9.97
2022-11-18T21:23:50.778Z,15.10
2022-11-18T21:26:19.817Z,12.40
2022-11-18T21:28:58.698Z,5.40
2022-11-18T21:31:28.703Z,9.37
2022-11-18T21:33:57.302Z,7.43
2022-11-18T21:36:27.730Z,4.23
2022-11-18T21:38:56.766Z,6.13
2022-11-18T21:41:24.966Z,4.43
2022-11-18T21:44:05.361Z,5.93
2022-11-18T21:46:35.893Z,5.17
2022-11-18T21:49:04.976Z,6.23
2022-11-18T21:51:34.573Z,4.30
2022-11-18T21:54:02.996Z,6.50
2022-11-18T21:56:31.891Z,6.27
2022-11-18T21:59:03.747Z,8.80
2022-11-18T22:01:33.753Z,6.43
2022-11-18T22:04:18.045Z,6.00
2022-11-18T22:06:46.233Z,6.90
2022-11-18T22:09:14.539Z,9.00
2022-11-18T22:11:43.021Z,6.20
2022-11-18T22:14:12.940Z,6.93
2022-11-18T22:16:41.396Z,5.37
2022-11-18T22:19:09.798Z,7.60
2022-11-18T22:21:38.064Z,13.43
2022-11-18T22:24:07.285Z,6.03
2022-11-18T22:26:35.932Z,5.30
2022-11-18T22:29:04.172Z,8.50
2022-11-18T22:31:33.701Z,7.07
2022-11-18T22:34:01.704Z,5.57
2022-11-18T22:36:30.240Z,6.10
2022-11-18T22:38:58.628Z,10.20
2022-11-18T22:41:45.385Z,6.60
2022-11-18T22:44:15.723Z,8.13
2022-11-18T22:46:48.206Z,9.23
2022-11-18T22:49:16.477Z,7.37
2022-11-18T22:51:44.738Z,7.50
2022-11-18T22:57:01.246Z,7.80
2022-11-18T22:59:29.484Z,9.40
2022-11-18T23:01:59.275Z,8.57
2022-11-18T23:04:28.643Z,6.17
2022-11-18T23:06:57.226Z,6.83
2022-11-18T23:09:25.795Z,6.47
2022-11-18T23:12:11.607Z,8.03
2022-11-18T23:14:39.845Z,7.67
2022-11-18T23:17:10.469Z,6.30
2022-11-18T23:19:42.040Z,7.97
2022-11-18T23:22:10.574Z,9.60
2022-11-18T23:24:38.808Z,7.40
2022-11-18T23:27:07.283Z,6.10
2022-11-18T23:29:35.739Z,3.93
2022-11-18T23:32:04.494Z,5.97
2022-11-18T23:34:34.375Z,6.70
2022-11-18T23:37:02.604Z,3.90
2022-11-18T23:39:30.794Z,5.47
2022-11-18T23:41:59.139Z,4.40
2022-11-18T23:44:46.668Z,5.13
2022-11-18T23:47:15.033Z,5.17
2022-11-18T23:49:44.842Z,8.63
2022-11-18T23:52:13.152Z,8.20
2022-11-18T23:54:41.904Z,5.30
2022-11-18T23:57:10.192Z,7.03
2022-11-18T23:59:38.619Z,10.87
